Apple Creek, Ohio
Current Conditions -  °F | °C
As of 7:56 AM on Sunday 21 Dec 2014 (Local Time) from KBJJ Reporting Station
Overcast Overcast  
Wind Chill: 29°   Ceiling: 2100
Heat Index: 29°   Visibility: 8mi
Dew Point: 21°   Wind: 3mph
Humidity: 72%   Direction: 10°N
Pressure: 30.3"   Gusts: NA
Location:  40.75°N, 81.84°W
Report Text: KBJJ 211256Z AUTO 01003KT 8SM OVC021 M02/M06 A3030 RMK AO2 SLP275 T10171061 TSNO
Loading
Personal Weather Stations






























Interactive Weather Map New forecast layout! Learn more

10-Day Weather Forecast

Advertisements
Track Severe Weather on mobile